sensor_id;sensor_type;location;lat;lon;timestamp;temperature;humidity
13123;DHT22;6627;50.920;12.050;2024-03-17T00:01:21;2.20;99.90
13123;DHT22;6627;50.920;12.050;2024-03-17T00:03:48;2.30;99.90
13123;DHT22;6627;50.920;12.050;2024-03-17T00:06:15;2.40;99.90
13123;DHT22;6627;50.920;12.050;2024-03-17T00:08:43;2.40;99.90
13123;DHT22;6627;50.920;12.050;2024-03-17T00:11:10;2.40;99.90
13123;DHT22;6627;50.920;12.050;2024-03-17T00:13:37;2.50;99.90
13123;DHT22;6627;50.920;12.050;2024-03-17T00:16:07;2.60;99.90
13123;DHT22;6627;50.920;12.050;2024-03-17T00:18:37;2.60;99.90
13123;DHT22;6627;50.920;12.050;2024-03-17T00:21:06;2.50;99.90
13123;DHT22;6627;50.920;12.050;2024-03-17T00:23:37;2.50;99.90
13123;DHT22;6627;50.920;12.050;2024-03-17T00:26:03;2.40;99.90
13123;DHT22;6627;50.920;12.050;2024-03-17T00:28:32;2.30;99.90
13123;DHT22;6627;50.920;12.050;2024-03-17T00:30:58;2.20;99.90
13123;DHT22;6627;50.920;12.050;2024-03-17T00:33:25;2.10;99.90
13123;DHT22;6627;50.920;12.050;2024-03-17T00:35:52;2.20;99.90
13123;DHT22;6627;50.920;12.050;2024-03-17T00:38:19;1.90;99.90
13123;DHT22;6627;50.920;12.050;2024-03-17T00:40:48;2.10;99.90
13123;DHT22;6627;50.920;12.050;2024-03-17T00:43:19;2.10;99.90
13123;DHT22;6627;50.920;12.050;2024-03-17T00:45:52;2.10;99.90
13123;DHT22;6627;50.920;12.050;2024-03-17T00:48:20;2.00;99.90
13123;DHT22;6627;50.920;12.050;2024-03-17T00:50:46;2.00;99.90
13123;DHT22;6627;50.920;12.050;2024-03-17T00:53:21;2.00;99.90
13123;DHT22;6627;50.920;12.050;2024-03-17T00:55:51;2.10;99.90
13123;DHT22;6627;50.920;12.050;2024-03-17T00:58:20;2.20;99.90
13123;DHT22;6627;50.920;12.050;2024-03-17T01:00:49;1.90;99.90
13123;DHT22;6627;50.920;12.050;2024-03-17T01:03:19;1.80;99.90
13123;DHT22;6627;50.920;12.050;2024-03-17T01:05:49;1.70;99.90
13123;DHT22;6627;50.920;12.050;2024-03-17T01:08:21;1.70;99.90
13123;DHT22;6627;50.920;12.050;2024-03-17T01:10:48;1.70;99.90
13123;DHT22;6627;50.920;12.050;2024-03-17T01:13:17;1.70;99.90
13123;DHT22;6627;50.920;12.050;2024-03-17T01:15:44;1.80;99.90
13123;DHT22;6627;50.920;12.050;2024-03-17T01:18:12;1.90;99.90
13123;DHT22;6627;50.920;12.050;2024-03-17T01:20:40;2.00;99.90
13123;DHT22;6627;50.920;12.050;2024-03-17T01:23:09;1.70;99.90
13123;DHT22;6627;50.920;12.050;2024-03-17T01:25:39;1.80;99.90
13123;DHT22;6627;50.920;12.050;2024-03-17T01:28:09;1.70;99.90
13123;DHT22;6627;50.920;12.050;2024-03-17T01:30:37;1.90;99.90
13123;DHT22;6627;50.920;12.050;2024-03-17T01:33:05;1.90;99.90
13123;DHT22;6627;50.920;12.050;2024-03-17T01:35:33;1.90;99.90
13123;DHT22;6627;50.920;12.050;2024-03-17T01:38:00;1.70;99.90
13123;DHT22;6627;50.920;12.050;2024-03-17T01:40:26;1.70;99.90
13123;DHT22;6627;50.920;12.050;2024-03-17T01:42:56;1.60;99.90
13123;DHT22;6627;50.920;12.050;2024-03-17T01:45:27;1.70;99.90
13123;DHT22;6627;50.920;12.050;2024-03-17T01:47:57;1.70;99.90
13123;DHT22;6627;50.920;12.050;2024-03-17T01:50:26;1.40;99.90
13123;DHT22;6627;50.920;12.050;2024-03-17T01:53:01;1.50;99.90
13123;DHT22;6627;50.920;12.050;2024-03-17T01:55:30;1.50;99.90
13123;DHT22;6627;50.920;12.050;2024-03-17T01:57:59;1.40;99.90
13123;DHT22;6627;50.920;12.050;2024-03-17T02:00:26;1.30;99.90
13123;DHT22;6627;50.920;12.050;2024-03-17T02:02:55;1.30;99.90
13123;DHT22;6627;50.920;12.050;2024-03-17T02:05:24;1.40;99.90
13123;DHT22;6627;50.920;12.050;2024-03-17T02:07:55;1.30;99.90
13123;DHT22;6627;50.920;12.050;2024-03-17T02:10:26;1.40;99.90
13123;DHT22;6627;50.920;12.050;2024-03-17T02:12:55;1.40;99.90
13123;DHT22;6627;50.920;12.050;2024-03-17T02:15:23;1.20;99.90
13123;DHT22;6627;50.920;12.050;2024-03-17T02:17:49;1.20;99.90
13123;DHT22;6627;50.920;12.050;2024-03-17T02:20:16;1.30;99.90
13123;DHT22;6627;50.920;12.050;2024-03-17T02:22:45;1.40;99.90
13123;DHT22;6627;50.920;12.050;2024-03-17T02:25:12;1.30;99.90
13123;DHT22;6627;50.920;12.050;2024-03-17T02:27:38;1.10;99.90
13123;DHT22;6627;50.920;12.050;2024-03-17T02:30:09;1.00;99.90
13123;DHT22;6627;50.920;12.050;2024-03-17T02:32:38;1.00;99.90
13123;DHT22;6627;50.920;12.050;2024-03-17T02:35:08;1.10;99.90
13123;DHT22;6627;50.920;12.050;2024-03-17T02:37:37;1.10;99.90
13123;DHT22;6627;50.920;12.050;2024-03-17T02:40:07;1.20;99.90
13123;DHT22;6627;50.920;12.050;2024-03-17T02:42:36;1.20;99.90
13123;DHT22;6627;50.920;12.050;2024-03-17T02:45:05;1.20;99.90
13123;DHT22;6627;50.920;12.050;2024-03-17T02:47:36;1.20;99.90
13123;DHT22;6627;50.920;12.050;2024-03-17T02:50:07;1.20;99.90
13123;DHT22;6627;50.920;12.050;2024-03-17T02:52:37;1.20;99.90
13123;DHT22;6627;50.920;12.050;2024-03-17T02:55:07;1.20;99.90
13123;DHT22;6627;50.920;12.050;2024-03-17T02:57:35;1.20;99.90
13123;DHT22;6627;50.920;12.050;2024-03-17T03:00:03;1.30;99.90
13123;DHT22;6627;50.920;12.050;2024-03-17T03:02:34;1.30;99.90
13123;DHT22;6627;50.920;12.050;2024-03-17T03:05:02;1.30;99.90
13123;DHT22;6627;50.920;12.050;2024-03-17T03:07:29;1.30;99.90
13123;DHT22;6627;50.920;12.050;2024-03-17T03:09:59;1.30;99.90
13123;DHT22;6627;50.920;12.050;2024-03-17T03:12:31;1.20;99.90
13123;DHT22;6627;50.920;12.050;2024-03-17T03:15:01;1.20;99.90
13123;DHT22;6627;50.920;12.050;2024-03-17T03:17:31;1.10;99.90
13123;DHT22;6627;50.920;12.050;2024-03-17T03:19:59;1.20;99.90
13123;DHT22;6627;50.920;12.050;2024-03-17T03:22:27;1.30;99.90
13123;DHT22;6627;50.920;12.050;2024-03-17T03:24:55;1.20;99.90
13123;DHT22;6627;50.920;12.050;2024-03-17T03:27:22;1.20;99.90
13123;DHT22;6627;50.920;12.050;2024-03-17T03:29:51;1.10;99.90
13123;DHT22;6627;50.920;12.050;2024-03-17T03:32:22;1.20;99.90
13123;DHT22;6627;50.920;12.050;2024-03-17T03:37:22;1.00;99.90
13123;DHT22;6627;50.920;12.050;2024-03-17T03:39:52;1.00;99.90
13123;DHT22;6627;50.920;12.050;2024-03-17T03:42:20;1.00;99.90
13123;DHT22;6627;50.920;12.050;2024-03-17T03:44:50;1.10;99.90
13123;DHT22;6627;50.920;12.050;2024-03-17T03:47:17;1.10;99.90
13123;DHT22;6627;50.920;12.050;2024-03-17T03:49:44;1.20;99.90
13123;DHT22;6627;50.920;12.050;2024-03-17T03:52:12;1.00;99.90
13123;DHT22;6627;50.920;12.050;2024-03-17T03:54:43;1.10;99.90
13123;DHT22;6627;50.920;12.050;2024-03-17T03:57:12;0.90;99.90
13123;DHT22;6627;50.920;12.050;2024-03-17T03:59:42;1.10;99.90
13123;DHT22;6627;50.920;12.050;2024-03-17T04:02:14;1.00;99.90
13123;DHT22;6627;50.920;12.050;2024-03-17T04:04:41;1.00;99.90
13123;DHT22;6627;50.920;12.050;2024-03-17T04:07:09;1.00;99.90
13123;DHT22;6627;50.920;12.050;2024-03-17T04:09:36;1.00;99.90
13123;DHT22;6627;50.920;12.050;2024-03-17T04:12:03;0.90;99.90
13123;DHT22;6627;50.920;12.050;2024-03-17T04:14:50;1.00;99.90
13123;DHT22;6627;50.920;12.050;2024-03-17T04:17:23;1.20;99.90
13123;DHT22;6627;50.920;12.050;2024-03-17T04:19:51;1.30;99.90
13123;DHT22;6627;50.920;12.050;2024-03-17T04:22:21;1.30;99.90
13123;DHT22;6627;50.920;12.050;2024-03-17T04:24:52;1.30;99.90
13123;DHT22;6627;50.920;12.050;2024-03-17T04:27:20;1.30;99.90
13123;DHT22;6627;50.920;12.050;2024-03-17T04:29:47;1.10;99.90
13123;DHT22;6627;50.920;12.050;2024-03-17T04:32:33;1.20;99.90
13123;DHT22;6627;50.920;12.050;2024-03-17T04:35:00;1.20;99.90
13123;DHT22;6627;50.920;12.050;2024-03-17T04:37:31;1.20;99.90
13123;DHT22;6627;50.920;12.050;2024-03-17T04:40:08;1.40;99.90
13123;DHT22;6627;50.920;12.050;2024-03-17T04:42:42;1.50;99.90
13123;DHT22;6627;50.920;12.050;2024-03-17T04:45:12;1.50;99.90
13123;DHT22;6627;50.920;12.050;2024-03-17T04:47:40;1.60;99.90
13123;DHT22;6627;50.920;12.050;2024-03-17T04:50:08;1.70;99.90
13123;DHT22;6627;50.920;12.050;2024-03-17T04:52:38;1.70;99.90
13123;DHT22;6627;50.920;12.050;2024-03-17T04:55:06;1.70;99.90
13123;DHT22;6627;50.920;12.050;2024-03-17T04:57:34;1.80;99.90
13123;DHT22;6627;50.920;12.050;2024-03-17T05:00:05;1.80;99.90
13123;DHT22;6627;50.920;12.050;2024-03-17T05:02:37;1.90;99.90
13123;DHT22;6627;50.920;12.050;2024-03-17T05:05:07;1.90;99.90
13123;DHT22;6627;50.920;12.050;2024-03-17T05:07:39;2.00;99.90
13123;DHT22;6627;50.920;12.050;2024-03-17T05:10:06;2.00;99.90
13123;DHT22;6627;50.920;12.050;2024-03-17T05:12:34;2.00;99.90
13123;DHT22;6627;50.920;12.050;2024-03-17T05:15:01;1.90;99.90
13123;DHT22;6627;50.920;12.050;2024-03-17T05:17:31;2.00;99.90
13123;DHT22;6627;50.920;12.050;2024-03-17T05:19:58;2.00;99.90
13123;DHT22;6627;50.920;12.050;2024-03-17T05:22:27;2.00;99.90
13123;DHT22;6627;50.920;12.050;2024-03-17T05:24:54;2.00;99.90
13123;DHT22;6627;50.920;12.050;2024-03-17T05:27:21;2.00;99.90
13123;DHT22;6627;50.920;12.050;2024-03-17T05:29:49;2.00;99.90
13123;DHT22;6627;50.920;12.050;2024-03-17T05:32:17;2.10;99.90
13123;DHT22;6627;50.920;12.050;2024-03-17T05:34:44;2.10;99.90
13123;DHT22;6627;50.920;12.050;2024-03-17T05:37:11;2.10;99.90
13123;DHT22;6627;50.920;12.050;2024-03-17T05:39:40;2.10;99.90
13123;DHT22;6627;50.920;12.050;2024-03-17T05:42:07;2.20;99.90
13123;DHT22;6627;50.920;12.050;2024-03-17T05:44:35;2.20;99.90
13123;DHT22;6627;50.920;12.050;2024-03-17T05:47:16;2.20;99.90
13123;DHT22;6627;50.920;12.050;2024-03-17T05:49:45;2.30;99.90
13123;DHT22;6627;50.920;12.050;2024-03-17T05:52:13;2.30;99.90
13123;DHT22;6627;50.920;12.050;2024-03-17T05:54:41;2.30;99.90
13123;DHT22;6627;50.920;12.050;2024-03-17T05:57:08;2.30;99.90
13123;DHT22;6627;50.920;12.050;2024-03-17T05:59:38;2.40;99.90
13123;DHT22;6627;50.920;12.050;2024-03-17T06:02:05;2.50;99.90
13123;DHT22;6627;50.920;12.050;2024-03-17T06:04:33;2.50;99.90
13123;DHT22;6627;50.920;12.050;2024-03-17T06:07:00;2.60;99.90
13123;DHT22;6627;50.920;12.050;2024-03-17T06:09:28;2.60;99.90
13123;DHT22;6627;50.920;12.050;2024-03-17T06:11:56;2.70;99.90
13123;DHT22;6627;50.920;12.050;2024-03-17T06:14:24;2.70;99.90
13123;DHT22;6627;50.920;12.050;2024-03-17T06:16:51;2.70;99.90
13123;DHT22;6627;50.920;12.050;2024-03-17T06:19:18;2.70;99.90
13123;DHT22;6627;50.920;12.050;2024-03-17T06:21:46;2.80;99.90
13123;DHT22;6627;50.920;12.050;2024-03-17T06:24:14;2.80;99.90
13123;DHT22;6627;50.920;12.050;2024-03-17T06:26:41;2.90;99.90
13123;DHT22;6627;50.920;12.050;2024-03-17T06:29:10;2.90;99.90
13123;DHT22;6627;50.920;12.050;2024-03-17T06:31:37;2.90;99.90
13123;DHT22;6627;50.920;12.050;2024-03-17T06:34:04;3.00;99.90
13123;DHT22;6627;50.920;12.050;2024-03-17T06:36:31;3.00;99.90
13123;DHT22;6627;50.920;12.050;2024-03-17T06:38:58;3.10;99.90
13123;DHT22;6627;50.920;12.050;2024-03-17T06:41:26;3.10;99.90
13123;DHT22;6627;50.920;12.050;2024-03-17T06:43:53;3.10;99.90
13123;DHT22;6627;50.920;12.050;2024-03-17T06:46:22;3.10;99.90
13123;DHT22;6627;50.920;12.050;2024-03-17T06:48:49;3.20;99.90
13123;DHT22;6627;50.920;12.050;2024-03-17T06:51:17;3.10;99.90
13123;DHT22;6627;50.920;12.050;2024-03-17T06:53:44;3.20;99.90
13123;DHT22;6627;50.920;12.050;2024-03-17T06:56:12;3.30;99.90
13123;DHT22;6627;50.920;12.050;2024-03-17T06:58:39;3.30;99.90
13123;DHT22;6627;50.920;12.050;2024-03-17T07:01:07;3.40;99.90
13123;DHT22;6627;50.920;12.050;2024-03-17T07:03:37;3.40;99.90
13123;DHT22;6627;50.920;12.050;2024-03-17T07:06:05;3.50;99.90
13123;DHT22;6627;50.920;12.050;2024-03-17T07:08:33;3.50;99.90
13123;DHT22;6627;50.920;12.050;2024-03-17T07:11:02;3.70;99.90
13123;DHT22;6627;50.920;12.050;2024-03-17T07:13:32;3.70;99.90
13123;DHT22;6627;50.920;12.050;2024-03-17T07:16:01;3.80;99.90
13123;DHT22;6627;50.920;12.050;2024-03-17T07:18:29;3.80;99.90
13123;DHT22;6627;50.920;12.050;2024-03-17T07:20:58;3.90;99.90
13123;DHT22;6627;50.920;12.050;2024-03-17T07:23:26;4.00;99.90
13123;DHT22;6627;50.920;12.050;2024-03-17T07:25:54;4.00;99.90
13123;DHT22;6627;50.920;12.050;2024-03-17T07:28:23;4.10;99.90
13123;DHT22;6627;50.920;12.050;2024-03-17T07:30:51;4.10;99.90
13123;DHT22;6627;50.920;12.050;2024-03-17T07:33:20;4.20;99.90
13123;DHT22;6627;50.920;12.050;2024-03-17T07:35:49;4.20;99.90
13123;DHT22;6627;50.920;12.050;2024-03-17T07:38:18;4.30;99.90
13123;DHT22;6627;50.920;12.050;2024-03-17T07:40:56;4.40;99.90
13123;DHT22;6627;50.920;12.050;2024-03-17T07:43:25;4.50;99.90
13123;DHT22;6627;50.920;12.050;2024-03-17T07:46:00;4.50;99.90
13123;DHT22;6627;50.920;12.050;2024-03-17T07:48:28;4.60;99.90
13123;DHT22;6627;50.920;12.050;2024-03-17T07:50:56;4.60;99.90
13123;DHT22;6627;50.920;12.050;2024-03-17T07:53:25;4.60;99.90
13123;DHT22;6627;50.920;12.050;2024-03-17T07:56:00;4.70;99.90
13123;DHT22;6627;50.920;12.050;2024-03-17T07:58:28;4.80;99.90
13123;DHT22;6627;50.920;12.050;2024-03-17T08:00:59;4.90;99.90
13123;DHT22;6627;50.920;12.050;2024-03-17T08:03:27;4.90;99.90
13123;DHT22;6627;50.920;12.050;2024-03-17T08:05:54;5.00;99.90
13123;DHT22;6627;50.920;12.050;2024-03-17T08:08:21;5.00;99.90
13123;DHT22;6627;50.920;12.050;2024-03-17T08:10:50;5.10;99.90
13123;DHT22;6627;50.920;12.050;2024-03-17T08:13:18;5.20;99.90
13123;DHT22;6627;50.920;12.050;2024-03-17T08:15:46;5.40;99.90
13123;DHT22;6627;50.920;12.050;2024-03-17T08:21:00;5.50;99.90
13123;DHT22;6627;50.920;12.050;2024-03-17T08:23:30;5.60;99.90
13123;DHT22;6627;50.920;12.050;2024-03-17T08:26:00;5.80;99.90
13123;DHT22;6627;50.920;12.050;2024-03-17T08:28:28;5.80;99.90
13123;DHT22;6627;50.920;12.050;2024-03-17T08:30:56;5.90;99.90
13123;DHT22;6627;50.920;12.050;2024-03-17T08:33:25;5.90;99.90
13123;DHT22;6627;50.920;12.050;2024-03-17T08:35:54;6.00;99.90
13123;DHT22;6627;50.920;12.050;2024-03-17T08:38:23;6.10;99.90
13123;DHT22;6627;50.920;12.050;2024-03-17T08:40:51;6.20;99.90
13123;DHT22;6627;50.920;12.050;2024-03-17T08:43:20;6.30;99.90
13123;DHT22;6627;50.920;12.050;2024-03-17T08:45:54;6.50;99.90
13123;DHT22;6627;50.920;12.050;2024-03-17T08:48:24;6.50;99.90
13123;DHT22;6627;50.920;12.050;2024-03-17T08:50:53;6.50;99.90
13123;DHT22;6627;50.920;12.050;2024-03-17T08:53:21;6.60;99.90
13123;DHT22;6627;50.920;12.050;2024-03-17T08:55:49;6.70;99.90
13123;DHT22;6627;50.920;12.050;2024-03-17T08:58:33;6.80;99.90
13123;DHT22;6627;50.920;12.050;2024-03-17T09:01:05;6.90;99.90
13123;DHT22;6627;50.920;12.050;2024-03-17T09:03:33;6.90;99.90
13123;DHT22;6627;50.920;12.050;2024-03-17T09:06:00;7.00;99.90
13123;DHT22;6627;50.920;12.050;2024-03-17T09:08:28;7.00;99.90
13123;DHT22;6627;50.920;12.050;2024-03-17T09:10:55;7.10;99.90
13123;DHT22;6627;50.920;12.050;2024-03-17T09:13:23;7.30;99.90
13123;DHT22;6627;50.920;12.050;2024-03-17T09:15:54;7.50;99.90
13123;DHT22;6627;50.920;12.050;2024-03-17T09:18:24;7.50;99.90
13123;DHT22;6627;50.920;12.050;2024-03-17T09:20:58;7.50;99.90
13123;DHT22;6627;50.920;12.050;2024-03-17T09:23:27;7.50;99.90
13123;DHT22;6627;50.920;12.050;2024-03-17T09:26:04;7.60;99.90
13123;DHT22;6627;50.920;12.050;2024-03-17T09:28:35;7.60;99.90
13123;DHT22;6627;50.920;12.050;2024-03-17T09:31:06;7.70;99.90
13123;DHT22;6627;50.920;12.050;2024-03-17T09:33:34;7.80;99.90
13123;DHT22;6627;50.920;12.050;2024-03-17T09:36:03;7.70;99.90
13123;DHT22;6627;50.920;12.050;2024-03-17T09:38:33;7.70;99.90
13123;DHT22;6627;50.920;12.050;2024-03-17T09:41:02;7.70;99.90
13123;DHT22;6627;50.920;12.050;2024-03-17T09:43:32;7.70;99.90
13123;DHT22;6627;50.920;12.050;2024-03-17T09:46:02;7.70;99.90
13123;DHT22;6627;50.920;12.050;2024-03-17T09:48:32;7.80;99.90
13123;DHT22;6627;50.920;12.050;2024-03-17T09:51:01;7.90;99.90
13123;DHT22;6627;50.920;12.050;2024-03-17T09:53:31;8.10;99.90
13123;DHT22;6627;50.920;12.050;2024-03-17T09:56:03;8.00;99.90
13123;DHT22;6627;50.920;12.050;2024-03-17T09:58:35;7.90;99.90
13123;DHT22;6627;50.920;12.050;2024-03-17T10:01:02;8.10;99.90
13123;DHT22;6627;50.920;12.050;2024-03-17T10:03:46;8.30;99.90
13123;DHT22;6627;50.920;12.050;2024-03-17T10:06:18;8.60;99.90
13123;DHT22;6627;50.920;12.050;2024-03-17T10:08:48;8.80;99.90
13123;DHT22;6627;50.920;12.050;2024-03-17T10:11:18;9.00;99.90
13123;DHT22;6627;50.920;12.050;2024-03-17T10:13:53;9.00;99.90
13123;DHT22;6627;50.920;12.050;2024-03-17T10:16:27;9.00;99.90
13123;DHT22;6627;50.920;12.050;2024-03-17T10:19:08;9.10;99.90
13123;DHT22;6627;50.920;12.050;2024-03-17T10:21:38;9.40;99.90
13123;DHT22;6627;50.920;12.050;2024-03-17T10:24:08;9.40;99.90
13123;DHT22;6627;50.920;12.050;2024-03-17T10:26:43;9.70;99.90
13123;DHT22;6627;50.920;12.050;2024-03-17T10:29:23;10.00;99.90
13123;DHT22;6627;50.920;12.050;2024-03-17T10:31:52;9.90;99.90
13123;DHT22;6627;50.920;12.050;2024-03-17T10:36:52;9.80;99.90
13123;DHT22;6627;50.920;12.050;2024-03-17T10:39:33;10.10;99.90
13123;DHT22;6627;50.920;12.050;2024-03-17T10:42:01;10.40;99.90
13123;DHT22;6627;50.920;12.050;2024-03-17T10:44:30;10.10;99.90
13123;DHT22;6627;50.920;12.050;2024-03-17T10:46:59;10.20;99.90
13123;DHT22;6627;50.920;12.050;2024-03-17T10:49:30;10.00;99.90
13123;DHT22;6627;50.920;12.050;2024-03-17T10:52:00;10.00;99.90
13123;DHT22;6627;50.920;12.050;2024-03-17T10:54:28;10.30;99.90
13123;DHT22;6627;50.920;12.050;2024-03-17T10:56:56;10.40;99.90
13123;DHT22;6627;50.920;12.050;2024-03-17T10:59:38;10.30;99.90
13123;DHT22;6627;50.920;12.050;2024-03-17T11:02:20;10.10;99.90
13123;DHT22;6627;50.920;12.050;2024-03-17T11:04:54;10.30;99.90
13123;DHT22;6627;50.920;12.050;2024-03-17T11:07:23;10.20;99.90
13123;DHT22;6627;50.920;12.050;2024-03-17T11:09:54;10.40;99.90
13123;DHT22;6627;50.920;12.050;2024-03-17T11:12:50;10.30;99.90
13123;DHT22;6627;50.920;12.050;2024-03-17T11:15:40;10.30;99.90
13123;DHT22;6627;50.920;12.050;2024-03-17T11:18:28;10.50;99.90
13123;DHT22;6627;50.920;12.050;2024-03-17T11:21:18;10.50;99.90
13123;DHT22;6627;50.920;12.050;2024-03-17T11:23:58;10.50;99.90
13123;DHT22;6627;50.920;12.050;2024-03-17T11:26:29;10.40;99.90
13123;DHT22;6627;50.920;12.050;2024-03-17T11:28:58;10.10;99.90
13123;DHT22;6627;50.920;12.050;2024-03-17T11:31:40;10.20;99.90
13123;DHT22;6627;50.920;12.050;2024-03-17T11:34:28;10.40;99.90
13123;DHT22;6627;50.920;12.050;2024-03-17T11:37:04;10.80;99.90
13123;DHT22;6627;50.920;12.050;2024-03-17T11:42:24;10.40;99.90
13123;DHT22;6627;50.920;12.050;2024-03-17T11:45:04;10.60;99.90
13123;DHT22;6627;50.920;12.050;2024-03-17T11:47:53;10.80;99.90
13123;DHT22;6627;50.920;12.050;2024-03-17T11:50:19;10.90;99.90
13123;DHT22;6627;50.920;12.050;2024-03-17T11:52:57;11.10;99.90
13123;DHT22;6627;50.920;12.050;2024-03-17T11:55:24;11.20;99.90
13123;DHT22;6627;50.920;12.050;2024-03-17T11:57:55;11.30;99.90
13123;DHT22;6627;50.920;12.050;2024-03-17T12:00:23;10.90;99.90
13123;DHT22;6627;50.920;12.050;2024-03-17T12:02:52;10.80;99.90
13123;DHT22;6627;50.920;12.050;2024-03-17T12:05:18;10.80;99.90
13123;DHT22;6627;50.920;12.050;2024-03-17T12:07:47;10.60;99.90
13123;DHT22;6627;50.920;12.050;2024-03-17T12:10:14;10.80;99.90
13123;DHT22;6627;50.920;12.050;2024-03-17T12:12:46;11.10;99.90
13123;DHT22;6627;50.920;12.050;2024-03-17T12:15:18;11.10;99.90
13123;DHT22;6627;50.920;12.050;2024-03-17T12:17:52;11.20;99.90
13123;DHT22;6627;50.920;12.050;2024-03-17T12:20:20;11.30;99.90
13123;DHT22;6627;50.920;12.050;2024-03-17T12:22:48;11.50;99.90
13123;DHT22;6627;50.920;12.050;2024-03-17T12:25:19;11.40;99.90
13123;DHT22;6627;50.920;12.050;2024-03-17T12:27:49;11.60;99.90
13123;DHT22;6627;50.920;12.050;2024-03-17T12:30:17;11.50;99.90
13123;DHT22;6627;50.920;12.050;2024-03-17T12:32:44;11.50;99.90
13123;DHT22;6627;50.920;12.050;2024-03-17T12:35:14;11.60;99.90
13123;DHT22;6627;50.920;12.050;2024-03-17T12:37:44;11.80;99.90
13123;DHT22;6627;50.920;12.050;2024-03-17T12:40:22;11.90;99.90
13123;DHT22;6627;50.920;12.050;2024-03-17T12:42:50;11.70;99.90
13123;DHT22;6627;50.920;12.050;2024-03-17T12:45:21;11.70;99.90
13123;DHT22;6627;50.920;12.050;2024-03-17T12:47:50;11.60;99.90
13123;DHT22;6627;50.920;12.050;2024-03-17T12:50:18;11.80;99.90
13123;DHT22;6627;50.920;12.050;2024-03-17T12:52:53;12.10;99.90
13123;DHT22;6627;50.920;12.050;2024-03-17T12:55:23;12.00;99.90
13123;DHT22;6627;50.920;12.050;2024-03-17T12:58:09;12.20;99.90
13123;DHT22;6627;50.920;12.050;2024-03-17T13:01:00;12.30;99.90
13123;DHT22;6627;50.920;12.050;2024-03-17T13:03:30;12.20;99.90
13123;DHT22;6627;50.920;12.050;2024-03-17T13:06:00;12.30;99.90
13123;DHT22;6627;50.920;12.050;2024-03-17T13:08:29;12.40;99.90
13123;DHT22;6627;50.920;12.050;2024-03-17T13:10:58;12.50;99.90
13123;DHT22;6627;50.920;12.050;2024-03-17T13:13:26;12.30;99.90
13123;DHT22;6627;50.920;12.050;2024-03-17T13:15:54;12.50;99.90
13123;DHT22;6627;50.920;12.050;2024-03-17T13:18:21;12.60;99.90
13123;DHT22;6627;50.920;12.050;2024-03-17T13:20:50;12.30;99.90
13123;DHT22;6627;50.920;12.050;2024-03-17T13:23:20;12.20;99.90
13123;DHT22;6627;50.920;12.050;2024-03-17T13:25:50;12.10;99.90
13123;DHT22;6627;50.920;12.050;2024-03-17T13:28:19;12.50;99.90
13123;DHT22;6627;50.920;12.050;2024-03-17T13:30:46;12.50;99.90
13123;DHT22;6627;50.920;12.050;2024-03-17T13:33:13;12.60;99.90
13123;DHT22;6627;50.920;12.050;2024-03-17T13:35:42;12.60;99.90
13123;DHT22;6627;50.920;12.050;2024-03-17T13:38:10;12.60;99.90
13123;DHT22;6627;50.920;12.050;2024-03-17T13:40:39;12.60;99.90
13123;DHT22;6627;50.920;12.050;2024-03-17T13:43:09;12.70;99.90
13123;DHT22;6627;50.920;12.050;2024-03-17T13:45:40;12.50;99.90
13123;DHT22;6627;50.920;12.050;2024-03-17T13:48:08;12.40;99.90
13123;DHT22;6627;50.920;12.050;2024-03-17T13:50:37;12.50;99.90
13123;DHT22;6627;50.920;12.050;2024-03-17T13:53:05;12.40;99.90
13123;DHT22;6627;50.920;12.050;2024-03-17T13:55:33;12.50;99.90
13123;DHT22;6627;50.920;12.050;2024-03-17T13:58:01;12.70;99.90
13123;DHT22;6627;50.920;12.050;2024-03-17T14:00:32;12.70;99.90
13123;DHT22;6627;50.920;12.050;2024-03-17T14:03:03;12.50;99.90
13123;DHT22;6627;50.920;12.050;2024-03-17T14:05:31;12.30;99.90
13123;DHT22;6627;50.920;12.050;2024-03-17T14:08:00;12.30;99.90
13123;DHT22;6627;50.920;12.050;2024-03-17T14:10:28;12.40;99.90
13123;DHT22;6627;50.920;12.050;2024-03-17T14:12:55;12.50;99.90
13123;DHT22;6627;50.920;12.050;2024-03-17T14:15:23;12.70;99.90
13123;DHT22;6627;50.920;12.050;2024-03-17T14:17:51;12.40;99.90
13123;DHT22;6627;50.920;12.050;2024-03-17T14:20:19;12.20;99.90
13123;DHT22;6627;50.920;12.050;2024-03-17T14:22:47;12.00;99.90
13123;DHT22;6627;50.920;12.050;2024-03-17T14:25:19;11.80;99.90
13123;DHT22;6627;50.920;12.050;2024-03-17T14:27:47;12.00;99.90
13123;DHT22;6627;50.920;12.050;2024-03-17T14:30:17;12.00;99.90
13123;DHT22;6627;50.920;12.050;2024-03-17T14:32:46;12.00;99.90
13123;DHT22;6627;50.920;12.050;2024-03-17T14:35:15;12.00;99.90
13123;DHT22;6627;50.920;12.050;2024-03-17T14:37:44;12.20;99.90
13123;DHT22;6627;50.920;12.050;2024-03-17T14:40:15;12.20;99.90
13123;DHT22;6627;50.920;12.050;2024-03-17T14:42:47;12.30;99.90
13123;DHT22;6627;50.920;12.050;2024-03-17T14:45:16;12.50;99.90
13123;DHT22;6627;50.920;12.050;2024-03-17T14:47:43;12.70;99.90
13123;DHT22;6627;50.920;12.050;2024-03-17T14:50:11;12.70;99.90
13123;DHT22;6627;50.920;12.050;2024-03-17T14:52:39;12.60;99.90
13123;DHT22;6627;50.920;12.050;2024-03-17T14:55:09;12.40;99.90
13123;DHT22;6627;50.920;12.050;2024-03-17T14:57:38;12.50;99.90
13123;DHT22;6627;50.920;12.050;2024-03-17T15:00:07;12.70;99.90
13123;DHT22;6627;50.920;12.050;2024-03-17T15:02:42;12.70;99.90
13123;DHT22;6627;50.920;12.050;2024-03-17T15:05:10;12.50;99.90
13123;DHT22;6627;50.920;12.050;2024-03-17T15:07:37;12.60;99.90
13123;DHT22;6627;50.920;12.050;2024-03-17T15:10:05;12.60;99.90
13123;DHT22;6627;50.920;12.050;2024-03-17T15:12:35;12.20;99.90
13123;DHT22;6627;50.920;12.050;2024-03-17T15:15:02;12.10;99.90
13123;DHT22;6627;50.920;12.050;2024-03-17T15:17:34;12.20;99.90
13123;DHT22;6627;50.920;12.050;2024-03-17T15:20:01;12.10;99.90
13123;DHT22;6627;50.920;12.050;2024-03-17T15:22:34;12.10;99.90
13123;DHT22;6627;50.920;12.050;2024-03-17T15:25:01;12.00;99.90
13123;DHT22;6627;50.920;12.050;2024-03-17T15:27:31;11.90;99.90
13123;DHT22;6627;50.920;12.050;2024-03-17T15:30:01;11.80;99.90
13123;DHT22;6627;50.920;12.050;2024-03-17T15:32:28;11.60;99.90
13123;DHT22;6627;50.920;12.050;2024-03-17T15:34:55;11.60;99.90
13123;DHT22;6627;50.920;12.050;2024-03-17T15:37:25;11.70;99.90
13123;DHT22;6627;50.920;12.050;2024-03-17T15:39:53;11.60;99.90
13123;DHT22;6627;50.920;12.050;2024-03-17T15:42:21;11.40;99.90
13123;DHT22;6627;50.920;12.050;2024-03-17T15:44:49;11.40;99.90
13123;DHT22;6627;50.920;12.050;2024-03-17T15:47:18;11.20;99.90
13123;DHT22;6627;50.920;12.050;2024-03-17T15:49:46;11.30;99.90
13123;DHT22;6627;50.920;12.050;2024-03-17T15:52:13;11.70;99.90
13123;DHT22;6627;50.920;12.050;2024-03-17T15:54:40;11.70;99.90
13123;DHT22;6627;50.920;12.050;2024-03-17T15:57:08;11.60;99.90
13123;DHT22;6627;50.920;12.050;2024-03-17T15:59:35;11.50;99.90
13123;DHT22;6627;50.920;12.050;2024-03-17T16:02:05;11.20;99.90
13123;DHT22;6627;50.920;12.050;2024-03-17T16:04:38;11.30;99.90
13123;DHT22;6627;50.920;12.050;2024-03-17T16:07:06;11.20;99.90